Newcomerstown, Ohio
Current Conditions -  °F | °C
As of 11:53 PM on Wednesday 26 Nov 2014 (Local Time) from KPHD Reporting Station
Overcast Overcast  
Wind Chill: 31°   Ceiling: 4200
Heat Index: 35°   Visibility: 9mi
Dew Point: 26°   Wind: 5mph
Humidity: 70%   Direction: 320°NW
Pressure: 30.04"   Gusts: NA
Location:  40.27°N, 81.61°W
Report Text: KPHD 270453Z AUTO 32004KT 9SM OVC042 02/M03 A3004 RMK AO2 SLP179 T00171033 400441017
Loading
Personal Weather Stations






























Interactive Weather Map New forecast layout! Learn more

10-Day Weather Forecast

Advertisements
Track Severe Weather on mobile